createdAt,value
2018-06-16T00:00:40.644Z,8.00
2018-06-16T00:01:43.738Z,8.00
2018-06-16T00:02:47.689Z,6.50
2018-06-16T00:03:50.474Z,6.50
2018-06-16T00:04:54.923Z,5.25
2018-06-16T00:05:58.505Z,8.00
2018-06-16T00:07:01.369Z,6.50
2018-06-16T00:08:04.395Z,5.75
2018-06-16T00:09:07.196Z,8.00
2018-06-16T00:10:10.968Z,6.00
2018-06-16T00:11:13.737Z,5.25
2018-06-16T00:12:17.900Z,5.25
2018-06-16T00:13:20.691Z,8.00
2018-06-16T00:14:24.508Z,8.00
2018-06-16T00:15:28.030Z,8.00
2018-06-16T00:16:30.818Z,6.50
2018-06-16T00:17:33.685Z,8.25
2018-06-16T00:18:36.484Z,8.00
2018-06-16T00:19:39.383Z,6.50
2018-06-16T00:20:45.407Z,6.00
2018-06-16T00:21:48.181Z,8.75
2018-06-16T00:22:52.398Z,7.00
2018-06-16T00:23:55.199Z,7.50
2018-06-16T00:24:59.805Z,6.00
2018-06-16T00:26:02.579Z,6.00
2018-06-16T00:27:05.635Z,8.00
2018-06-16T00:28:08.431Z,6.00
2018-06-16T00:29:11.185Z,7.50
2018-06-16T00:30:15.536Z,8.00
2018-06-16T00:31:19.039Z,9.00
2018-06-16T00:32:22.379Z,6.50
2018-06-16T00:33:25.441Z,8.00
2018-06-16T00:34:28.257Z,8.50
2018-06-16T00:35:33.438Z,8.25
2018-06-16T00:36:36.227Z,8.00
2018-06-16T00:37:39.824Z,7.00
2018-06-16T00:38:42.655Z,6.50
2018-06-16T00:39:45.691Z,8.00
2018-06-16T00:40:48.467Z,8.00
2018-06-16T00:41:51.331Z,8.75
2018-06-16T00:42:56.024Z,6.00
2018-06-16T00:44:00.182Z,7.50
2018-06-16T00:45:03.900Z,8.00
2018-06-16T00:46:06.983Z,7.50
2018-06-16T00:47:09.734Z,8.00
2018-06-16T00:48:12.492Z,8.75
2018-06-16T00:49:15.275Z,8.00
2018-06-16T00:50:18.557Z,6.50
2018-06-16T00:51:22.229Z,6.00
2018-06-16T00:52:25.952Z,8.50
2018-06-16T00:53:28.693Z,8.50
2018-06-16T00:54:31.469Z,8.50
2018-06-16T00:55:34.226Z,8.00
2018-06-16T00:56:37.029Z,8.50
2018-06-16T00:57:39.802Z,8.25
2018-06-16T00:58:43.894Z,8.00
2018-06-16T00:59:47.320Z,8.00
2018-06-16T01:00:50.640Z,8.50
2018-06-16T01:01:56.070Z,8.25
2018-06-16T01:02:58.805Z,9.00
2018-06-16T01:04:02.274Z,8.75
2018-06-16T01:05:05.148Z,8.00
2018-06-16T01:06:08.907Z,8.25
2018-06-16T01:07:11.671Z,8.50
2018-06-16T01:08:14.427Z,9.00
2018-06-16T01:09:19.161Z,9.00
2018-06-16T01:10:23.008Z,9.00
2018-06-16T01:11:25.777Z,11.75
2018-06-16T01:12:28.557Z,8.00
2018-06-16T01:13:31.367Z,8.75
2018-06-16T01:14:34.142Z,8.75
2018-06-16T01:15:36.898Z,9.00
2018-06-16T01:16:39.984Z,10.25
2018-06-16T01:17:42.785Z,8.25
2018-06-16T01:18:45.564Z,9.00
2018-06-16T01:19:48.375Z,9.25
2018-06-16T01:20:51.109Z,9.00
2018-06-16T01:21:53.896Z,9.00
2018-06-16T01:22:57.336Z,9.25
2018-06-16T01:24:00.124Z,8.75
2018-06-16T01:25:02.879Z,9.00
2018-06-16T01:26:06.042Z,9.00
2018-06-16T01:27:08.802Z,8.75
2018-06-16T01:28:11.562Z,9.00
2018-06-16T01:29:15.601Z,10.75
2018-06-16T01:30:18.414Z,8.50
2018-06-16T01:31:21.187Z,8.50
2018-06-16T01:32:24.893Z,8.75
2018-06-16T01:33:27.647Z,10.25
2018-06-16T01:34:30.442Z,9.00
2018-06-16T01:35:33.501Z,9.00
2018-06-16T01:36:36.382Z,9.00
2018-06-16T01:37:39.147Z,8.00
2018-06-16T01:38:41.927Z,8.25
2018-06-16T01:39:44.768Z,8.75
2018-06-16T01:40:47.538Z,10.75
2018-06-16T01:41:50.796Z,8.50
2018-06-16T01:42:53.590Z,8.75
2018-06-16T01:43:57.957Z,10.75
2018-06-16T01:45:00.732Z,8.00
2018-06-16T01:46:03.532Z,10.75
2018-06-16T01:47:06.312Z,10.75
2018-06-16T01:48:09.400Z,9.00
2018-06-16T01:49:12.186Z,11.25
2018-06-16T01:50:14.931Z,12.00
2018-06-16T01:51:17.685Z,8.50
2018-06-16T01:52:20.437Z,9.00
2018-06-16T01:53:23.213Z,11.50
2018-06-16T01:54:26.268Z,10.75
2018-06-16T01:55:29.015Z,9.00
2018-06-16T01:56:31.821Z,10.75
2018-06-16T01:57:34.597Z,11.50
2018-06-16T01:58:37.372Z,10.75
2018-06-16T01:59:40.146Z,13.00
2018-06-16T02:00:43.277Z,10.75
2018-06-16T02:01:46.089Z,10.75
2018-06-16T02:02:51.795Z,12.00
2018-06-16T02:03:54.545Z,11.50
2018-06-16T02:04:57.337Z,10.25
2018-06-16T02:06:00.154Z,10.75
2018-06-16T02:07:03.229Z,9.25
2018-06-16T02:08:06.020Z,11.75
2018-06-16T02:09:09.141Z,9.75
2018-06-16T02:10:12.435Z,10.75
2018-06-16T02:11:15.186Z,10.50
2018-06-16T02:12:17.976Z,10.75
2018-06-16T02:13:21.533Z,9.00
2018-06-16T02:14:25.514Z,9.75
2018-06-16T02:15:28.481Z,10.75
2018-06-16T02:16:32.892Z,10.75
2018-06-16T02:17:35.673Z,10.75
2018-06-16T02:18:38.459Z,10.75
2018-06-16T02:19:41.510Z,11.75
2018-06-16T02:20:44.285Z,9.00
2018-06-16T02:21:47.056Z,9.50
2018-06-16T02:22:49.840Z,10.75
2018-06-16T02:23:52.604Z,8.75
2018-06-16T02:24:55.365Z,11.50
2018-06-16T02:25:58.450Z,12.25
2018-06-16T02:27:01.257Z,10.25
2018-06-16T02:28:04.021Z,8.75
2018-06-16T02:29:06.823Z,10.75
2018-06-16T02:30:09.609Z,9.00
2018-06-16T02:31:12.375Z,9.50
2018-06-16T02:32:17.199Z,10.75
2018-06-16T02:33:21.014Z,9.75
2018-06-16T02:34:23.800Z,12.50
2018-06-16T02:35:26.552Z,12.00
2018-06-16T02:36:29.311Z,10.00
2018-06-16T02:37:33.694Z,12.00
2018-06-16T02:38:36.729Z,9.75
2018-06-16T02:39:39.558Z,9.00
2018-06-16T02:40:42.310Z,9.75
2018-06-16T02:41:45.066Z,10.25
2018-06-16T02:42:47.838Z,9.25
2018-06-16T02:43:50.619Z,8.50
2018-06-16T02:44:53.673Z,9.50
2018-06-16T02:45:57.457Z,11.25
2018-06-16T02:47:00.233Z,10.75
2018-06-16T02:48:03.022Z,10.00
2018-06-16T02:49:05.843Z,11.50
2018-06-16T02:50:08.680Z,11.50
2018-06-16T02:51:11.834Z,10.75
2018-06-16T02:52:14.606Z,11.50
2018-06-16T02:53:17.492Z,10.75
2018-06-16T02:54:20.271Z,10.75
2018-06-16T02:55:23.032Z,9.50
2018-06-16T02:56:25.798Z,11.00
2018-06-16T02:57:28.867Z,9.00
2018-06-16T02:58:31.622Z,11.75
2018-06-16T02:59:34.603Z,12.25
2018-06-16T03:00:37.350Z,9.00
2018-06-16T03:01:40.709Z,10.25
2018-06-16T03:02:43.504Z,11.50
2018-06-16T03:03:46.549Z,9.00
2018-06-16T03:04:49.316Z,10.00
2018-06-16T03:05:52.143Z,10.50
2018-06-16T03:06:54.918Z,10.75
2018-06-16T03:07:57.648Z,9.00
2018-06-16T03:09:00.407Z,10.75
2018-06-16T03:10:03.471Z,11.25
2018-06-16T03:11:06.272Z,10.50
2018-06-16T03:12:10.030Z,11.00
2018-06-16T03:13:12.801Z,12.00
2018-06-16T03:14:15.592Z,11.00
2018-06-16T03:15:18.455Z,10.75
2018-06-16T03:16:21.688Z,11.25
2018-06-16T03:17:24.503Z,9.00
2018-06-16T03:18:27.278Z,8.75
2018-06-16T03:19:30.055Z,9.00
2018-06-16T03:20:32.829Z,10.75
2018-06-16T03:21:35.616Z,9.00
2018-06-16T03:22:38.707Z,11.50
2018-06-16T03:23:41.465Z,10.25
2018-06-16T03:24:44.279Z,10.00
2018-06-16T03:25:47.091Z,10.75
2018-06-16T03:26:49.878Z,11.25
2018-06-16T03:27:52.639Z,12.00
2018-06-16T03:28:55.695Z,8.75
2018-06-16T03:29:58.488Z,10.25
2018-06-16T03:31:01.262Z,10.50
2018-06-16T03:32:04.057Z,11.50
2018-06-16T03:33:06.817Z,10.00
2018-06-16T03:34:09.638Z,9.00
2018-06-16T03:35:12.727Z,10.75
2018-06-16T03:36:15.532Z,8.25
2018-06-16T03:37:18.566Z,9.75
2018-06-16T03:38:22.216Z,12.00
2018-06-16T03:39:24.986Z,9.25
2018-06-16T03:40:27.739Z,9.25
2018-06-16T03:41:30.831Z,9.00
2018-06-16T03:42:33.618Z,9.00
2018-06-16T03:43:37.075Z,9.00
2018-06-16T03:44:39.891Z,10.75
2018-06-16T03:45:42.705Z,10.75
2018-06-16T03:46:45.498Z,11.00
2018-06-16T03:47:48.570Z,9.00
2018-06-16T03:48:51.357Z,8.50
2018-06-16T03:49:54.138Z,11.75
2018-06-16T03:50:57.529Z,9.25
2018-06-16T03:52:00.605Z,10.50
2018-06-16T03:53:03.356Z,11.50
2018-06-16T03:54:06.422Z,10.25
2018-06-16T03:55:09.187Z,10.75
2018-06-16T03:56:11.987Z,9.75
2018-06-16T03:57:14.771Z,10.25
2018-06-16T03:58:17.917Z,9.00
2018-06-16T03:59:20.686Z,9.25
2018-06-16T04:00:23.742Z,11.50
2018-06-16T04:01:26.506Z,10.75
2018-06-16T04:02:29.325Z,11.50
2018-06-16T04:03:32.119Z,12.00
2018-06-16T04:04:34.997Z,10.75
2018-06-16T04:05:37.792Z,10.75
2018-06-16T04:06:40.848Z,10.75
2018-06-16T04:07:43.622Z,10.75
2018-06-16T04:08:46.370Z,10.50
2018-06-16T04:09:49.142Z,8.75
2018-06-16T04:10:51.914Z,11.00
2018-06-16T04:11:55.123Z,9.75
2018-06-16T04:14:07.517Z,9.00
2018-06-16T04:15:10.503Z,10.75
2018-06-16T04:16:13.359Z,9.00
2018-06-16T04:17:21.913Z,10.75
2018-06-16T04:18:25.374Z,12.00
2018-06-16T04:19:28.481Z,9.00
2018-06-16T04:20:31.274Z,11.50
2018-06-16T04:21:34.062Z,13.00
2018-06-16T04:22:36.861Z,11.75
2018-06-16T04:23:39.626Z,11.50
2018-06-16T04:24:43.594Z,10.75
2018-06-16T04:25:46.644Z,11.50
2018-06-16T04:26:49.644Z,11.00
2018-06-16T04:27:52.401Z,10.75
2018-06-16T04:28:55.193Z,9.50
2018-06-16T04:29:59.413Z,9.25
2018-06-16T04:31:02.813Z,11.25
2018-06-16T04:32:06.141Z,10.75
2018-06-16T04:33:08.911Z,10.25
2018-06-16T04:34:11.683Z,11.00
2018-06-16T04:35:14.432Z,10.25
2018-06-16T04:36:17.225Z,9.50
2018-06-16T04:37:19.984Z,10.50
2018-06-16T04:38:23.053Z,10.75
2018-06-16T04:39:25.865Z,10.50
2018-06-16T04:40:28.648Z,9.00
2018-06-16T04:41:31.544Z,12.00
2018-06-16T04:42:34.341Z,13.00
2018-06-16T04:43:37.130Z,12.25
2018-06-16T04:44:40.198Z,12.25
2018-06-16T04:45:43.044Z,10.50
2018-06-16T04:46:45.796Z,10.75
2018-06-16T04:47:48.570Z,10.75
2018-06-16T04:48:52.362Z,12.25
2018-06-16T04:49:55.162Z,12.00
2018-06-16T04:50:57.917Z,12.75
2018-06-16T04:52:00.677Z,12.00
2018-06-16T04:53:04.422Z,14.75
2018-06-16T04:54:09.620Z,15.75
2018-06-16T04:55:12.411Z,12.25
2018-06-16T04:56:15.212Z,12.75
2018-06-16T04:57:19.990Z,10.50
2018-06-16T04:58:22.793Z,12.50
2018-06-16T04:59:26.550Z,17.00
2018-06-16T05:00:29.360Z,12.50
2018-06-16T05:01:32.434Z,15.00
2018-06-16T05:02:35.243Z,15.00
2018-06-16T05:03:38.064Z,12.00
2018-06-16T05:04:41.364Z,12.50
2018-06-16T05:05:44.159Z,13.75
2018-06-16T05:06:46.959Z,12.00
2018-06-16T05:07:50.040Z,14.75
2018-06-16T05:08:52.799Z,16.50
2018-06-16T05:09:55.597Z,15.00
2018-06-16T05:10:58.400Z,11.50
2018-06-16T05:12:03.636Z,12.25
2018-06-16T05:13:06.388Z,9.75
2018-06-16T05:14:09.573Z,12.00
2018-06-16T05:15:12.651Z,12.75
2018-06-16T05:16:15.423Z,12.50
2018-06-16T05:17:18.186Z,12.75
2018-06-16T05:18:20.973Z,13.00
2018-06-16T05:19:23.782Z,12.00
2018-06-16T05:20:26.846Z,13.50
2018-06-16T05:21:29.628Z,12.75
2018-06-16T05:22:32.411Z,14.50
2018-06-16T05:23:35.213Z,12.25
2018-06-16T05:24:38.092Z,13.00
2018-06-16T05:25:40.962Z,13.00
2018-06-16T05:26:44.969Z,12.00
2018-06-16T05:27:47.755Z,12.75
2018-06-16T05:28:50.532Z,14.00
2018-06-16T05:29:53.328Z,12.50
2018-06-16T05:30:56.092Z,13.00
2018-06-16T05:31:58.912Z,12.75
2018-06-16T05:33:02.086Z,13.75
2018-06-16T05:34:04.857Z,13.50
2018-06-16T05:35:07.702Z,10.75
2018-06-16T05:36:10.487Z,11.75
2018-06-16T05:37:13.323Z,12.00
2018-06-16T05:38:16.175Z,13.25
2018-06-16T05:39:19.264Z,12.50
2018-06-16T05:40:22.011Z,15.00
2018-06-16T05:41:24.797Z,14.00
2018-06-16T05:42:27.569Z,10.50
2018-06-16T05:43:30.359Z,13.25
2018-06-16T05:44:33.114Z,13.75
2018-06-16T05:45:38.968Z,10.00
2018-06-16T05:46:41.745Z,12.50
2018-06-16T05:47:44.546Z,13.00
2018-06-16T05:48:47.340Z,13.25
2018-06-16T05:49:50.748Z,13.00
2018-06-16T05:50:53.535Z,10.75
2018-06-16T05:51:56.709Z,13.25
2018-06-16T05:52:59.870Z,12.00
2018-06-16T05:54:02.679Z,12.00
2018-06-16T05:55:05.485Z,12.00
2018-06-16T05:56:08.245Z,13.75
2018-06-16T05:57:11.019Z,13.25
2018-06-16T05:58:14.428Z,15.00
2018-06-16T05:59:17.205Z,16.75
2018-06-16T06:00:19.992Z,19.50
2018-06-16T06:01:22.844Z,17.25
2018-06-16T06:02:25.635Z,16.50
2018-06-16T06:03:28.427Z,23.00
2018-06-16T06:04:31.557Z,20.25
2018-06-16T06:05:34.353Z,18.00
2018-06-16T06:06:37.382Z,18.00
2018-06-16T06:07:40.135Z,12.50
2018-06-16T06:08:46.472Z,15.00
2018-06-16T06:09:50.344Z,18.25
2018-06-16T06:10:53.413Z,18.00
2018-06-16T06:11:56.214Z,16.50
2018-06-16T06:12:59.018Z,18.50
2018-06-16T06:14:01.786Z,18.50
2018-06-16T06:15:07.647Z,14.25
2018-06-16T06:16:10.425Z,16.25
2018-06-16T06:17:14.455Z,14.50
2018-06-16T06:18:17.231Z,14.75
2018-06-16T06:19:20.023Z,16.50
2018-06-16T06:20:22.804Z,14.00
2018-06-16T06:21:25.613Z,15.50
2018-06-16T06:22:29.364Z,13.50
2018-06-16T06:23:35.433Z,14.00
2018-06-16T06:24:38.993Z,15.00
2018-06-16T06:25:41.789Z,14.25
2018-06-16T06:26:47.551Z,14.00
2018-06-16T06:27:50.401Z,14.00
2018-06-16T06:28:53.228Z,11.75
2018-06-16T06:29:56.484Z,11.75
2018-06-16T06:30:59.278Z,10.50
2018-06-16T06:32:05.967Z,13.50
2018-06-16T06:33:08.817Z,12.00
2018-06-16T06:34:11.614Z,13.75
2018-06-16T06:35:14.485Z,11.00
2018-06-16T06:36:17.620Z,9.00
2018-06-16T06:37:20.400Z,12.50
2018-06-16T06:38:23.201Z,11.00
2018-06-16T06:39:26.037Z,10.50
2018-06-16T06:40:30.250Z,12.00
2018-06-16T06:41:33.072Z,12.00
2018-06-16T06:42:36.413Z,11.75
2018-06-16T06:43:39.225Z,10.50
2018-06-16T06:44:42.032Z,10.75
2018-06-16T06:45:44.827Z,10.00
2018-06-16T06:46:47.593Z,10.00
2018-06-16T06:47:50.479Z,10.00
2018-06-16T06:48:53.514Z,10.00
2018-06-16T06:49:56.338Z,11.25
2018-06-16T06:51:00.946Z,10.25
2018-06-16T06:52:03.741Z,10.50
2018-06-16T06:53:06.529Z,10.50
2018-06-16T06:54:09.364Z,10.75
2018-06-16T06:55:12.678Z,7.50
2018-06-16T06:56:15.509Z,8.50
2018-06-16T06:57:18.284Z,11.75
2018-06-16T06:58:21.088Z,9.75
2018-06-16T06:59:23.945Z,10.75
2018-06-16T07:00:26.752Z,8.50
2018-06-16T07:01:29.842Z,11.00
2018-06-16T07:02:32.590Z,10.00
2018-06-16T07:03:35.688Z,10.00
2018-06-16T07:04:38.521Z,8.50
2018-06-16T07:05:41.305Z,11.00
2018-06-16T07:06:44.089Z,10.00
2018-06-16T07:07:47.173Z,10.25
2018-06-16T07:08:49.940Z,9.00
2018-06-16T07:09:53.638Z,10.00
2018-06-16T07:10:56.531Z,11.00
2018-06-16T07:11:59.305Z,10.25
2018-06-16T07:13:02.117Z,11.00
2018-06-16T07:14:05.199Z,9.75
2018-06-16T07:15:07.972Z,10.50
2018-06-16T07:16:10.783Z,9.75
2018-06-16T07:17:13.617Z,9.25
2018-06-16T07:18:16.432Z,11.75
2018-06-16T07:19:19.362Z,10.50
2018-06-16T07:20:22.803Z,11.00
2018-06-16T07:21:26.797Z,8.75
2018-06-16T07:22:29.565Z,9.00
2018-06-16T07:23:32.388Z,11.00
2018-06-16T07:24:35.187Z,10.25
2018-06-16T07:25:38.088Z,11.00
2018-06-16T07:26:41.103Z,10.25
2018-06-16T07:27:43.870Z,11.50
2018-06-16T07:28:46.679Z,10.50
2018-06-16T07:29:49.487Z,8.75
2018-06-16T07:30:52.282Z,9.50
2018-06-16T07:31:58.261Z,8.00
2018-06-16T07:33:05.369Z,10.25
2018-06-16T07:34:09.402Z,10.50
2018-06-16T07:35:12.883Z,10.75
2018-06-16T07:36:15.712Z,11.00
2018-06-16T07:37:18.786Z,10.75
2018-06-16T07:38:22.251Z,9.50
2018-06-16T07:39:25.042Z,10.25
2018-06-16T07:40:27.845Z,11.00
2018-06-16T07:41:30.632Z,9.00
2018-06-16T07:42:33.543Z,10.00
2018-06-16T07:43:37.372Z,11.00
2018-06-16T07:44:40.557Z,9.00
2018-06-16T07:45:44.135Z,11.25
2018-06-16T07:46:47.622Z,11.00
2018-06-16T07:47:50.406Z,11.50
2018-06-16T07:48:53.177Z,9.50
2018-06-16T07:50:03.444Z,11.75
2018-06-16T07:51:06.990Z,9.00
2018-06-16T07:52:09.823Z,9.00
2018-06-16T07:53:12.666Z,8.50
2018-06-16T07:54:15.466Z,7.50
2018-06-16T07:55:20.571Z,9.00
2018-06-16T07:56:24.586Z,10.75
2018-06-16T07:57:27.373Z,9.50
2018-06-16T07:58:30.660Z,9.50
2018-06-16T07:59:33.441Z,9.00
2018-06-16T08:00:36.231Z,9.00
2018-06-16T08:01:40.713Z,10.50
2018-06-16T08:02:44.763Z,9.50
2018-06-16T08:03:47.609Z,9.50
2018-06-16T08:04:51.269Z,10.75
2018-06-16T08:05:54.219Z,8.50
2018-06-16T08:06:57.017Z,8.25
2018-06-16T08:07:59.847Z,9.50
2018-06-16T08:09:03.720Z,10.00
2018-06-16T08:10:06.768Z,9.00
2018-06-16T08:11:09.611Z,8.50
2018-06-16T08:12:12.450Z,10.50
2018-06-16T08:13:15.263Z,9.75
2018-06-16T08:14:32.620Z,9.00
2018-06-16T08:15:36.254Z,8.25
2018-06-16T08:16:40.458Z,9.00
2018-06-16T08:17:43.348Z,9.00
2018-06-16T08:18:46.689Z,9.00
2018-06-16T08:19:50.018Z,8.00
2018-06-16T08:20:53.279Z,8.25
2018-06-16T08:21:58.117Z,8.25
2018-06-16T08:23:02.677Z,9.50
2018-06-16T08:24:06.820Z,9.25
2018-06-16T08:25:10.291Z,8.00
2018-06-16T08:26:14.717Z,8.00
2018-06-16T08:27:18.097Z,8.00
2018-06-16T08:28:21.795Z,9.00
2018-06-16T08:29:24.866Z,10.00
2018-06-16T08:30:28.729Z,7.00
2018-06-16T08:31:33.088Z,7.00
2018-06-16T08:32:38.912Z,8.00
2018-06-16T08:33:42.328Z,8.00
2018-06-16T08:34:46.891Z,7.00
2018-06-16T08:35:49.930Z,8.00
2018-06-16T08:36:53.835Z,6.50
2018-06-16T08:38:02.666Z,7.50
2018-06-16T08:39:07.642Z,7.00
2018-06-16T08:40:11.054Z,8.25
2018-06-16T08:42:32.120Z,7.00
2018-06-16T08:43:36.515Z,7.50
2018-06-16T08:44:40.167Z,7.25
2018-06-16T08:45:42.969Z,5.50
2018-06-16T08:46:45.781Z,7.75
2018-06-16T08:47:49.634Z,8.00
2018-06-16T08:48:52.494Z,8.00
2018-06-16T08:49:55.304Z,7.00
2018-06-16T08:50:58.510Z,7.00
2018-06-16T08:52:03.846Z,4.50
2018-06-16T08:53:06.710Z,7.25
2018-06-16T08:54:09.522Z,6.50
2018-06-16T08:55:17.357Z,7.25
2018-06-16T08:56:23.265Z,7.00
2018-06-16T08:57:26.393Z,7.25
2018-06-16T08:58:29.310Z,6.50
2018-06-16T08:59:33.536Z,5.75
2018-06-16T09:00:36.359Z,6.00
2018-06-16T09:01:39.341Z,7.25
2018-06-16T09:02:42.388Z,7.00
2018-06-16T09:03:48.523Z,5.00
2018-06-16T09:04:52.547Z,5.50
2018-06-16T09:05:56.213Z,5.00
2018-06-16T09:06:59.003Z,5.50
2018-06-16T09:08:02.458Z,6.00
2018-06-16T09:09:05.914Z,4.50
2018-06-16T09:10:08.727Z,4.75
2018-06-16T09:11:11.576Z,6.00
2018-06-16T09:12:15.652Z,4.00
2018-06-16T09:13:18.960Z,4.25
2018-06-16T09:14:21.777Z,4.00
2018-06-16T09:15:28.674Z,5.00
2018-06-16T09:16:32.400Z,7.00
2018-06-16T09:17:35.981Z,7.00
2018-06-16T09:18:39.398Z,4.50
2018-06-16T09:19:43.180Z,5.00
2018-06-16T09:20:46.745Z,7.50
2018-06-16T09:21:49.574Z,8.00
2018-06-16T09:22:52.392Z,6.50
2018-06-16T09:23:55.182Z,8.00
2018-06-16T09:24:57.992Z,5.50
2018-06-16T09:26:00.780Z,4.50
2018-06-16T09:27:07.297Z,4.75
2018-06-16T09:28:10.105Z,5.50
2018-06-16T09:29:13.534Z,5.00
2018-06-16T09:30:16.314Z,5.75
2018-06-16T09:31:20.601Z,7.00
2018-06-16T09:32:23.343Z,5.75
2018-06-16T09:33:27.251Z,4.50
2018-06-16T09:34:30.733Z,6.50
2018-06-16T09:35:33.555Z,5.75
2018-06-16T09:36:36.574Z,6.00
2018-06-16T09:37:40.289Z,6.00
2018-06-16T09:38:43.062Z,7.00
2018-06-16T09:39:46.164Z,6.00
2018-06-16T09:40:48.941Z,6.00
2018-06-16T09:41:51.758Z,6.00
2018-06-16T09:42:55.437Z,7.00
2018-06-16T09:43:58.533Z,6.00
2018-06-16T09:45:02.202Z,5.50
2018-06-16T09:46:06.469Z,5.75
2018-06-16T09:47:09.291Z,5.75
2018-06-16T09:48:14.236Z,5.75
2018-06-16T09:49:17.918Z,5.25
2018-06-16T09:50:20.724Z,6.75
2018-06-16T09:51:24.165Z,5.75
2018-06-16T09:52:27.429Z,5.75
2018-06-16T09:53:30.198Z,5.75
2018-06-16T09:54:35.104Z,5.25
2018-06-16T09:55:38.685Z,5.75
2018-06-16T09:56:41.663Z,6.25
2018-06-16T09:57:45.663Z,6.75
2018-06-16T09:58:48.798Z,7.75
2018-06-16T09:59:51.623Z,6.25
2018-06-16T10:00:55.315Z,6.00
2018-06-16T10:01:58.113Z,5.75
2018-06-16T10:03:02.498Z,6.00
2018-06-16T10:04:05.519Z,6.00
2018-06-16T10:05:11.067Z,5.50
2018-06-16T10:06:14.704Z,5.50
2018-06-16T10:07:17.949Z,7.00
2018-06-16T10:08:20.858Z,6.25
2018-06-16T10:09:24.985Z,6.00
2018-06-16T10:10:27.822Z,6.75
2018-06-16T10:11:30.645Z,7.00
2018-06-16T10:12:33.852Z,6.50
2018-06-16T10:13:37.035Z,6.00
2018-06-16T10:14:39.829Z,6.00
2018-06-16T10:15:42.652Z,6.00
2018-06-16T10:16:45.409Z,4.00
2018-06-16T10:17:48.279Z,7.00
2018-06-16T10:18:51.108Z,7.00
2018-06-16T10:19:54.301Z,7.00
2018-06-16T10:20:57.070Z,6.50
2018-06-16T10:21:59.978Z,5.75
2018-06-16T10:23:02.749Z,7.00
2018-06-16T10:24:05.555Z,5.75
2018-06-16T10:25:08.351Z,7.00
2018-06-16T10:26:11.675Z,4.00
2018-06-16T10:27:16.323Z,5.75
2018-06-16T10:28:20.026Z,5.00
2018-06-16T10:29:22.801Z,6.00
2018-06-16T10:30:26.310Z,4.75
2018-06-16T10:31:30.696Z,5.75
2018-06-16T10:32:35.566Z,5.75
2018-06-16T10:33:38.665Z,6.75
2018-06-16T10:34:41.481Z,5.75
2018-06-16T10:35:46.225Z,4.00
2018-06-16T10:36:49.086Z,5.50
2018-06-16T10:37:52.912Z,6.00
2018-06-16T10:38:56.583Z,4.50
2018-06-16T10:39:59.357Z,4.00
2018-06-16T10:41:04.525Z,4.00
2018-06-16T10:42:09.235Z,3.75
2018-06-16T10:43:12.364Z,4.00
2018-06-16T10:44:15.688Z,6.00
2018-06-16T10:45:19.888Z,6.25
2018-06-16T10:46:23.512Z,6.00
2018-06-16T10:47:26.285Z,4.00
2018-06-16T10:48:29.070Z,6.00
2018-06-16T10:49:33.513Z,4.50
2018-06-16T10:50:39.124Z,6.00
2018-06-16T10:51:44.099Z,4.00
2018-06-16T10:52:46.881Z,4.00
2018-06-16T10:53:49.777Z,5.75
2018-06-16T10:54:53.488Z,6.00
2018-06-16T10:55:57.270Z,4.25
2018-06-16T10:57:00.099Z,3.50
2018-06-16T10:58:03.995Z,4.00
2018-06-16T10:59:06.823Z,4.00
2018-06-16T11:00:10.507Z,4.00
2018-06-16T11:01:13.265Z,5.25
2018-06-16T11:02:17.306Z,5.25
2018-06-16T11:03:20.110Z,4.75
2018-06-16T11:04:29.677Z,4.00
2018-06-16T11:05:36.104Z,4.00
2018-06-16T11:06:40.664Z,5.50
2018-06-16T11:07:46.737Z,4.25
2018-06-16T11:08:55.532Z,4.75
2018-06-16T11:10:06.306Z,4.50
2018-06-16T11:11:11.409Z,4.25
2018-06-16T11:13:33.814Z,5.75
2018-06-16T11:14:37.734Z,4.25
2018-06-16T11:15:40.584Z,5.00
2018-06-16T11:16:45.249Z,4.00
2018-06-16T11:17:48.448Z,4.00
2018-06-16T11:18:51.253Z,4.00
2018-06-16T11:19:54.297Z,5.00
2018-06-16T11:20:57.111Z,4.25
2018-06-16T11:22:00.269Z,3.75
2018-06-16T11:23:03.279Z,4.75
2018-06-16T11:24:07.745Z,4.00
2018-06-16T11:25:11.640Z,3.00
2018-06-16T11:26:15.802Z,4.50
2018-06-16T11:27:20.241Z,4.25
2018-06-16T11:28:25.981Z,3.75
2018-06-16T11:29:31.726Z,4.00
2018-06-16T11:30:35.613Z,5.75
2018-06-16T11:31:38.528Z,4.50
2018-06-16T11:32:42.909Z,4.00
2018-06-16T11:33:46.595Z,5.00
2018-06-16T11:34:49.941Z,4.75
2018-06-16T11:35:53.561Z,4.00
2018-06-16T11:36:57.133Z,4.00
2018-06-16T11:37:59.933Z,4.00
2018-06-16T11:39:04.316Z,4.25
2018-06-16T11:40:07.082Z,4.00
2018-06-16T11:41:11.558Z,4.25
2018-06-16T11:42:15.271Z,4.00
2018-06-16T11:43:18.252Z,4.00
2018-06-16T11:44:21.544Z,4.00
2018-06-16T11:45:24.404Z,4.00
2018-06-16T11:46:31.458Z,4.00
2018-06-16T11:47:37.611Z,4.00
2018-06-16T11:48:41.209Z,4.75
2018-06-16T11:49:45.649Z,4.00
2018-06-16T11:50:48.465Z,4.25
2018-06-16T11:51:51.220Z,4.50
2018-06-16T11:52:55.614Z,3.75
2018-06-16T11:53:58.383Z,4.00
2018-06-16T11:55:03.450Z,4.25
2018-06-16T11:56:06.257Z,4.25
2018-06-16T11:57:09.793Z,4.75
2018-06-16T11:58:12.615Z,4.00
2018-06-16T11:59:16.314Z,4.75
2018-06-16T12:00:20.606Z,4.50
2018-06-16T12:01:24.333Z,4.75
2018-06-16T12:02:33.764Z,4.00
2018-06-16T12:03:37.355Z,4.00
2018-06-16T12:04:56.126Z,4.00
2018-06-16T12:06:00.554Z,4.00
2018-06-16T12:07:05.659Z,4.00
2018-06-16T12:08:09.519Z,4.75
2018-06-16T12:09:13.634Z,4.00
2018-06-16T12:10:16.408Z,4.00
2018-06-16T12:11:19.832Z,4.25
2018-06-16T12:12:22.819Z,4.25
2018-06-16T12:13:26.168Z,5.00
2018-06-16T12:14:28.938Z,4.25
2018-06-16T12:15:31.750Z,5.00
2018-06-16T12:16:34.611Z,3.75
2018-06-16T12:17:37.690Z,4.00
2018-06-16T12:18:41.619Z,3.75
2018-06-16T12:19:48.535Z,4.50
2018-06-16T12:20:51.323Z,4.50
2018-06-16T12:21:54.268Z,4.25
2018-06-16T12:23:00.158Z,5.00
2018-06-16T12:24:04.194Z,5.00
2018-06-16T12:25:07.761Z,4.50
2018-06-16T12:26:12.436Z,5.00
2018-06-16T12:27:15.400Z,5.00
2018-06-16T12:28:18.286Z,5.00
2018-06-16T12:29:21.739Z,5.00
2018-06-16T12:30:24.913Z,4.25
2018-06-16T12:31:27.916Z,5.00
2018-06-16T12:32:33.671Z,5.25
2018-06-16T12:33:37.370Z,4.50
2018-06-16T12:34:42.106Z,4.50
2018-06-16T12:35:45.963Z,4.00
2018-06-16T12:36:49.185Z,4.00
2018-06-16T12:37:52.252Z,6.25
2018-06-16T12:38:56.989Z,4.50
2018-06-16T12:39:59.752Z,4.75
2018-06-16T12:41:03.869Z,4.75
2018-06-16T12:42:06.744Z,4.00
2018-06-16T12:43:09.873Z,4.50
2018-06-16T12:44:13.030Z,3.50
2018-06-16T12:45:16.501Z,5.00
2018-06-16T12:46:20.066Z,3.75
2018-06-16T12:47:22.927Z,3.75
2018-06-16T12:48:29.720Z,4.00
2018-06-16T12:49:32.895Z,4.50
2018-06-16T12:50:35.871Z,4.00
2018-06-16T12:51:38.707Z,3.75
2018-06-16T12:52:41.459Z,5.50
2018-06-16T12:53:44.290Z,3.50
2018-06-16T12:54:47.347Z,4.50
2018-06-16T12:55:51.942Z,5.00
2018-06-16T12:56:54.790Z,4.00
2018-06-16T12:57:57.715Z,4.25
2018-06-16T12:59:00.734Z,4.00
2018-06-16T13:00:03.669Z,5.00
2018-06-16T13:01:06.979Z,4.25
2018-06-16T13:02:09.792Z,5.00
2018-06-16T13:03:12.650Z,4.00
2018-06-16T13:04:15.410Z,4.00
2018-06-16T13:05:18.210Z,4.00
2018-06-16T13:06:21.992Z,4.00
2018-06-16T13:07:31.194Z,5.00
2018-06-16T13:08:34.028Z,4.00
2018-06-16T13:09:37.397Z,5.75
2018-06-16T13:10:40.234Z,5.00
2018-06-16T13:11:43.211Z,4.25
2018-06-16T13:12:46.696Z,3.00
2018-06-16T13:13:51.399Z,4.50
2018-06-16T13:14:54.245Z,3.00
2018-06-16T13:15:57.064Z,5.00
2018-06-16T13:16:59.833Z,4.25
2018-06-16T13:18:03.191Z,4.00
2018-06-16T13:19:05.996Z,4.75
2018-06-16T13:20:12.103Z,4.75
2018-06-16T13:21:14.926Z,5.00
2018-06-16T13:22:18.040Z,4.50
2018-06-16T13:23:20.866Z,4.25
2018-06-16T13:24:23.672Z,5.00
2018-06-16T13:25:29.229Z,4.25
2018-06-16T13:26:32.432Z,5.00
2018-06-16T13:27:35.277Z,5.00
2018-06-16T13:28:38.103Z,5.00
2018-06-16T13:29:41.917Z,5.00
2018-06-16T13:30:44.721Z,4.25
2018-06-16T13:31:47.519Z,5.25
2018-06-16T13:32:50.290Z,5.25
2018-06-16T13:33:53.138Z,4.00
2018-06-16T13:34:57.131Z,3.25
2018-06-16T13:35:59.918Z,5.00
2018-06-16T13:37:02.717Z,4.25
2018-06-16T13:38:06.932Z,5.00
2018-06-16T13:39:11.570Z,5.00
2018-06-16T13:40:15.902Z,4.75
2018-06-16T13:41:18.693Z,4.50
2018-06-16T13:42:22.313Z,4.00
2018-06-16T13:43:26.053Z,5.50
2018-06-16T13:44:29.423Z,4.00
2018-06-16T13:45:32.562Z,4.25
2018-06-16T13:46:35.330Z,5.25
2018-06-16T13:47:38.758Z,6.00
2018-06-16T13:48:42.094Z,5.00
2018-06-16T13:49:44.910Z,4.50
2018-06-16T13:50:47.800Z,5.75
2018-06-16T13:51:51.499Z,4.75
2018-06-16T13:52:54.291Z,5.25
2018-06-16T13:53:57.636Z,5.75
2018-06-16T13:55:01.389Z,4.75
2018-06-16T13:56:04.126Z,5.00
2018-06-16T13:57:06.956Z,5.00
2018-06-16T13:58:10.212Z,5.00